| time (UTC) | temp C | wind direction | speed KPH | gust KPH | rain 1hr cm | rain 24hr cm | rain mn cm | humidity % | barometer mb |
| 20260506103841 | 17 | 202 | 0.0 | 0.0 | 0.00 | 0.05 | 0.00 | 62 | 1005.5 |
| 20260506103330 | 16 | 202 | 0.0 | 3.2 | 0.00 | 0.05 | 0.00 | 62 | 1005.6 |
| 20260506102816 | 17 | 202 | 1.6 | 6.4 | 0.00 | 0.05 | 0.00 | 61 | 1005.7 |
| 20260506102306 | 17 | 202 | 0.0 | 0.0 | 0.00 | 0.05 | 0.00 | 60 | 1005.7 |
| 20260506101754 | 17 | 202 | 1.6 | 6.4 | 0.00 | 0.05 | 0.00 | 61 | 1005.8 |
| 20260506101241 | 18 | 202 | 0.0 | 0.0 | 0.00 | 0.05 | 0.00 | 57 | 1005.8 |
| 20260506100730 | 17 | 202 | 1.6 | 6.4 | 0.00 | 0.05 | 0.00 | 60 | 1005.9 |
| 20260506100218 | 17 | 202 | 1.6 | 6.4 | 0.00 | 0.05 | 0.00 | 61 | 1005.9 |
| 20260506095707 | 17 | 202 | 1.6 | 6.4 | 0.00 | 0.05 | 0.00 | 62 | 1005.9 |
| 20260506095152 | 16 | 202 | 3.2 | 6.4 | 0.00 | 0.05 | 0.00 | 62 | 1005.9 |
| 20260506094641 | 16 | 202 | 1.6 | 6.4 | 0.00 | 0.05 | 0.00 | 62 | 1005.9 |
| 20260506094130 | 17 | 202 | 1.6 | 3.2 | 0.00 | 0.05 | 0.00 | 58 | 1005.9 |
| 20260506093617 | 18 | 202 | 1.6 | 3.2 | 0.00 | 0.05 | 0.00 | 60 | 1005.9 |
| 20260506093106 | 18 | 202 | 0.0 | 3.2 | 0.00 | 0.05 | 0.00 | 60 | 1005.8 |
| 20260506092551 | 17 | 202 | 1.6 | 3.2 | 0.00 | 0.05 | 0.00 | 61 | 1005.9 |
| 20260506092043 | 17 | 202 | 1.6 | 3.2 | 0.00 | 0.05 | 0.00 | 58 | 1005.9 |
| 20260506091530 | 17 | 202 | 1.6 | 3.2 | 0.00 | 0.05 | 0.00 | 61 | 1005.9 |
| 20260506091017 | 17 | 202 | 1.6 | 3.2 | 0.00 | 0.05 | 0.00 | 63 | 1005.8 |
| 20260506090504 | 17 | 202 | 0.0 | 3.2 | 0.00 | 0.05 | 0.00 | 65 | 1005.8 |
| 20260506085955 | 16 | 202 | 0.0 | 3.2 | 0.00 | 0.05 | 0.00 | 63 | 1005.9 |
| 20260506085441 | 16 | 202 | 0.0 | 3.2 | 0.00 | 0.05 | 0.00 | 69 | 1005.9 |
| 20260506084930 | 15 | 202 | 1.6 | 3.2 | 0.00 | 0.05 | 0.00 | 71 | 1006.0 |
| 20260506084417 | 15 | 202 | 1.6 | 3.2 | 0.00 | 0.05 | 0.00 | 72 | 1005.8 |
| 20260506083905 | 15 | 202 | 1.6 | 3.2 | 0.00 | 0.05 | 0.00 | 73 | 1005.9 |
| 20260506083353 | 15 | 202 | 1.6 | 3.2 | 0.00 | 0.05 | 0.00 | 72 | 1005.9 |
| 20260506082840 | 15 | 202 | 1.6 | 3.2 | 0.00 | 0.05 | 0.00 | 74 | 1005.9 |
| 20260506082329 | 14 | 202 | 0.0 | 3.2 | 0.00 | 0.05 | 0.00 | 77 | 1006.0 |
| 20260506081818 | 14 | 202 | 0.0 | 3.2 | 0.00 | 0.05 | 0.00 | 78 | 1006.0 |
| 20260506081306 | 13 | 202 | 0.0 | 3.2 | 0.00 | 0.05 | 0.00 | 79 | 1005.9 |
| 20260506080752 | 13 | 202 | 1.6 | 3.2 | 0.00 | 0.05 | 0.00 | 80 | 1006.0 |
| 20260506080242 | 13 | 202 | 1.6 | 3.2 | 0.00 | 0.05 | 0.00 | 81 | 1006.1 |
| 20260506073134 | 12 | 158 | 1.6 | 3.2 | 0.00 | 0.05 | 0.00 | 82 | 1006.5 |
| 20260506072617 | 12 | 158 | 0.0 | 3.2 | 0.00 | 0.05 | 0.00 | 83 | 1006.6 |
| 20260506072107 | 12 | 158 | 1.6 | 3.2 | 0.00 | 0.05 | 0.00 | 84 | 1006.7 |
| 20260506071553 | 12 | 158 | 1.6 | 3.2 | 0.00 | 0.05 | 0.00 | 83 | 1006.5 |
| 20260506071040 | 12 | 158 | 1.6 | 6.4 | 0.00 | 0.05 | 0.00 | 83 | 1006.4 |
| 20260506070528 | 12 | 158 | 0.0 | 6.4 | 0.00 | 0.05 | 0.00 | 83 | 1006.3 |
| 20260506062352 | 14 | 270 | 1.6 | 3.2 | 0.00 | 0.05 | 0.00 | 76 | 1006.2 |
| 20260506061842 | 15 | 270 | 0.0 | 6.4 | 0.00 | 0.05 | 0.00 | 76 | 1006.1 |
| 20260506061328 | 13 | 0 | 0.0 | 0.0 | 0.00 | 0.05 | 0.00 | 80 | 1006.2 |
| 20260506060819 | 13 | 0 | 0.0 | 0.0 | 0.00 | 0.05 | 0.00 | 78 | 1006.2 |
| 20260506060305 | 15 | 0 | 0.0 | 0.0 | 0.00 | 0.05 | 0.00 | 76 | 1006.3 |
| 20260506051117 | 9 | 0 | 0.0 | 0.0 | 0.00 | 0.05 | 0.00 | 98 | 1006.5 |
| 20260506050606 | 8 | 0 | 0.0 | 0.0 | 0.00 | 0.05 | 0.00 | 98 | 1006.5 |
| 20260506045029 | 8 | 0 | 0.0 | 0.0 | 0.00 | 0.05 | 0.00 | 98 | 1006.6 |
| 20260506044519 | 8 | 0 | 0.0 | 0.0 | 0.00 | 0.05 | 0.00 | 98 | 1006.7 |
| 20260506044004 | 7 | 0 | 0.0 | 0.0 | 0.00 | 0.05 | 0.00 | 98 | 1006.7 |
| 20260506043452 | 7 | 0 | 0.0 | 0.0 | 0.00 | 0.05 | 0.00 | 98 | 1006.7 |
| 20260506042951 | 8 | 0 | 0.0 | 0.0 | 0.00 | 0.05 | 0.00 | 98 | 1006.9 |
| 20260506042441 | 8 | 0 | 0.0 | 0.0 | 0.00 | 0.05 | 0.00 | 98 | 1007.0 |
| 20260506041928 | 7 | 0 | 0.0 | 0.0 | 0.00 | 0.05 | 0.00 | 98 | 1007.1 |
| 20260506041417 | 7 | 0 | 0.0 | 0.0 | 0.00 | 0.05 | 0.00 | 97 | 1007.0 |
| 20260506040906 | 7 | 0 | 0.0 | 0.0 | 0.00 | 0.05 | 0.00 | 97 | 1007.0 |
| 20260506040355 | 7 | 0 | 0.0 | 0.0 | 0.00 | 0.05 | 0.00 | 97 | 1007.0 |
| 20260506035839 | 8 | 0 | 0.0 | 0.0 | 0.00 | 0.05 | 0.00 | 97 | 1007.1 |
| 20260506035343 | 7 | 0 | 0.0 | 0.0 | 0.00 | 0.05 | 0.00 | 97 | 1007.1 |
| 20260506034828 | 7 | 0 | 0.0 | 0.0 | 0.00 | 0.05 | 0.00 | 97 | 1007.2 |
| 20260506034319 | 7 | 0 | 0.0 | 0.0 | 0.00 | 0.05 | 0.00 | 97 | 1007.2 |
| 20260506033804 | 7 | 0 | 0.0 | 0.0 | 0.00 | 0.05 | 0.00 | 97 | 1007.3 |
| 20260506033306 | 7 | 0 | 0.0 | 0.0 | 0.00 | 0.05 | 0.00 | 97 | 1007.3 |
| 20260506032751 | 7 | 0 | 0.0 | 0.0 | 0.00 | 0.05 | 0.00 | 97 | 1007.2 |
| 20260506032254 | 7 | 0 | 0.0 | 0.0 | 0.00 | 0.05 | 0.00 | 97 | 1007.4 |
| 20260506031740 | 8 | 0 | 0.0 | 0.0 | 0.00 | 0.05 | 0.00 | 97 | 1007.3 |
| 20260506031229 | 8 | 0 | 0.0 | 0.0 | 0.00 | 0.05 | 0.00 | 97 | 1007.3 |
| 20260506030717 | 7 | 0 | 0.0 | 0.0 | 0.00 | 0.05 | 0.00 | 96 | 1007.3 |
| 20260506030217 | 7 | 0 | 0.0 | 0.0 | 0.00 | 0.05 | 0.00 | 96 | 1007.3 |
| 20260506025703 | 7 | 0 | 0.0 | 0.0 | 0.00 | 0.05 | 0.00 | 96 | 1007.5 |
| 20260506025207 | 7 | 0 | 0.0 | 0.0 | 0.00 | 0.05 | 0.00 | 96 | 1007.4 |
| 20260506024653 | 8 | 0 | 0.0 | 0.0 | 0.00 | 0.05 | 0.00 | 96 | 1007.4 |
| 20260506024142 | 8 | 0 | 0.0 | 0.0 | 0.00 | 0.05 | 0.00 | 96 | 1007.4 |
| 20260506023628 | 8 | 0 | 0.0 | 0.0 | 0.00 | 0.05 | 0.00 | 96 | 1007.5 |
| 20260506023118 | 8 | 270 | 0.0 | 3.2 | 0.00 | 0.05 | 0.00 | 96 | 1007.5 |
| 20260506022605 | 8 | 0 | 0.0 | 0.0 | 0.00 | 0.05 | 0.00 | 95 | 1007.4 |
| 20260506022101 | 8 | 0 | 0.0 | 0.0 | 0.00 | 0.05 | 0.00 | 95 | 1007.5 |
| 20260506021541 | 8 | 0 | 0.0 | 0.0 | 0.00 | 0.05 | 0.00 | 95 | 1007.4 |
| 20260506021029 | 8 | 0 | 0.0 | 0.0 | 0.00 | 0.05 | 0.00 | 94 | 1007.4 |
| 20260506020516 | 8 | 0 | 0.0 | 0.0 | 0.00 | 0.05 | 0.00 | 94 | 1007.4 |
| 20260506020020 | 8 | 270 | 0.0 | 0.0 | 0.00 | 0.05 | 0.00 | 94 | 1007.3 |
| 20260506015504 | 9 | 270 | 1.6 | 3.2 | 0.00 | 0.05 | 0.00 | 95 | 1007.3 |
| 20260506014953 | 9 | 270 | 1.6 | 6.4 | 0.00 | 0.05 | 0.00 | 94 | 1007.4 |
| 20260506014441 | 9 | 270 | 1.6 | 3.2 | 0.00 | 0.05 | 0.00 | 94 | 1007.5 |
| 20260506013929 | 9 | 270 | 1.6 | 3.2 | 0.00 | 0.05 | 0.00 | 94 | 1007.6 |
| 20260506013416 | 9 | 270 | 3.2 | 6.4 | 0.00 | 0.05 | 0.00 | 94 | 1007.7 |
| 20260506012906 | 9 | 270 | 3.2 | 6.4 | 0.00 | 0.05 | 0.00 | 94 | 1007.8 |
| 20260506012352 | 9 | 270 | 3.2 | 6.4 | 0.00 | 0.05 | 0.00 | 94 | 1007.9 |
| 20260506011840 | 9 | 225 | 3.2 | 6.4 | 0.00 | 0.05 | 0.00 | 94 | 1007.9 |
| 20260506011329 | 9 | 225 | 3.2 | 6.4 | 0.00 | 0.05 | 0.00 | 94 | 1007.8 |
| 20260506010816 | 9 | 225 | 3.2 | 6.4 | 0.00 | 0.05 | 0.00 | 95 | 1007.9 |
| 20260506010306 | 8 | 225 | 3.2 | 3.2 | 0.00 | 0.05 | 0.00 | 95 | 1007.8 |
| 20260506005801 | 8 | 225 | 1.6 | 3.2 | 0.00 | 0.05 | 0.00 | 95 | 1007.8 |
| 20260506005242 | 8 | 225 | 0.0 | 0.0 | 0.00 | 0.05 | 0.00 | 95 | 1007.7 |
| 20260506004731 | 8 | 225 | 0.0 | 3.2 | 0.00 | 0.05 | 0.00 | 95 | 1007.5 |
| 20260506004216 | 8 | 225 | 0.0 | 0.0 | 0.00 | 0.05 | 0.00 | 95 | 1007.7 |
| 20260506003706 | 8 | 225 | 1.6 | 3.2 | 0.00 | 0.05 | 0.00 | 94 | 1007.7 |
| 20260506003152 | 8 | 225 | 1.6 | 3.2 | 0.00 | 0.05 | 0.00 | 95 | 1007.7 |
| 20260506002641 | 8 | 225 | 0.0 | 3.2 | 0.00 | 0.05 | 0.00 | 95 | 1007.9 |
| 20260506002128 | 8 | 0 | 0.0 | 0.0 | 0.00 | 0.05 | 0.00 | 94 | 1008.0 |
| 20260506001618 | 8 | 225 | 1.6 | 3.2 | 0.00 | 0.05 | 0.00 | 94 | 1008.0 |
| 20260506001103 | 8 | 225 | 1.6 | 3.2 | 0.00 | 0.05 | 0.00 | 95 | 1007.9 |
| 20260506000553 | 8 | 225 | 1.6 | 3.2 | 0.00 | 0.05 | 0.00 | 94 | 1008.1 |
| 20260506000041 | 8 | 225 | 0.0 | 3.2 | 0.00 | 0.05 | 0.00 | 94 | 1008.1 |
| 20260505235529 | 8 | 0 | 0.0 | 0.0 | 0.00 | 0.05 | 0.00 | 94 | 1008.1 |
| 20260505235016 | 8 | 225 | 0.0 | 3.2 | 0.00 | 0.05 | 0.00 | 94 | 1008.2 |
| 20260505234505 | 8 | 0 | 0.0 | 0.0 | 0.00 | 0.05 | 0.00 | 94 | 1008.1 |
| 20260505233953 | 8 | 0 | 0.0 | 0.0 | 0.00 | 0.05 | 0.00 | 94 | 1008.3 |
| 20260505233443 | 8 | 225 | 0.0 | 0.0 | 0.00 | 0.05 | 0.00 | 93 | 1008.3 |
| 20260505232928 | 8 | 225 | 0.0 | 3.2 | 0.00 | 0.05 | 0.00 | 94 | 1008.4 |
| 20260505232417 | 8 | 0 | 0.0 | 0.0 | 0.00 | 0.05 | 0.00 | 92 | 1008.4 |
| 20260505231905 | 8 | 0 | 0.0 | 0.0 | 0.00 | 0.05 | 0.00 | 92 | 1008.4 |
| 20260505231355 | 9 | 0 | 0.0 | 0.0 | 0.00 | 0.05 | 0.00 | 91 | 1008.3 |
| 20260505230840 | 9 | 0 | 0.0 | 0.0 | 0.00 | 0.05 | 0.00 | 91 | 1008.4 |
| 20260505230328 | 9 | 0 | 0.0 | 0.0 | 0.00 | 0.05 | 0.00 | 91 | 1008.5 |
| 20260505225817 | 10 | 225 | 0.0 | 0.0 | 0.00 | 0.05 | 0.00 | 90 | 1008.5 |
| 20260505225306 | 10 | 225 | 1.6 | 3.2 | 0.00 | 0.05 | 0.00 | 90 | 1008.5 |
| 20260505224753 | 10 | 225 | 0.0 | 6.4 | 0.00 | 0.05 | 0.00 | 90 | 1008.5 |
| 20260505224243 | 10 | 225 | 0.0 | 0.0 | 0.00 | 0.05 | 0.00 | 88 | 1008.4 |
| 20260505223728 | 10 | 225 | 1.6 | 3.2 | 0.00 | 0.05 | 0.00 | 87 | 1008.3 |
| 20260505223219 | 11 | 225 | 1.6 | 11.3 | 0.00 | 0.05 | 0.00 | 87 | 1008.3 |
| 20260505222704 | 11 | 225 | 3.2 | 6.4 | 0.00 | 0.05 | 0.00 | 87 | 1008.3 |
| 20260505222159 | 11 | 225 | 3.2 | 6.4 | 0.00 | 0.05 | 0.00 | 87 | 1008.3 |
| 20260505221641 | 11 | 225 | 1.6 | 6.4 | 0.00 | 0.05 | 0.00 | 86 | 1008.3 |
| 20260505221130 | 11 | 225 | 3.2 | 6.4 | 0.00 | 0.05 | 0.00 | 86 | 1008.2 |
| 20260505220615 | 11 | 202 | 3.2 | 6.4 | 0.00 | 0.05 | 0.00 | 85 | 1008.3 |
| 20260505220106 | 11 | 270 | 3.2 | 11.3 | 0.00 | 0.05 | 0.00 | 85 | 1008.3 |
| 20260505215552 | 11 | 292 | 3.2 | 11.3 | 0.00 | 0.05 | 0.05 | 85 | 1008.3 |
| 20260505215044 | 11 | 292 | 3.2 | 14.5 | 0.00 | 0.05 | 0.05 | 84 | 1008.2 |
| 20260505214528 | 11 | 248 | 4.8 | 14.5 | 0.00 | 0.05 | 0.05 | 84 | 1008.2 |
| 20260505214019 | 12 | 68 | 4.8 | 11.3 | 0.00 | 0.05 | 0.05 | 83 | 1008.2 |
| 20260505213506 | 12 | 202 | 3.2 | 6.4 | 0.00 | 0.05 | 0.05 | 83 | 1008.2 |
| 20260505212954 | 12 | 292 | 4.8 | 11.3 | 0.00 | 0.05 | 0.05 | 83 | 1008.1 |
| 20260505212440 | 12 | 225 | 4.8 | 11.3 | 0.00 | 0.05 | 0.05 | 83 | 1008.1 |
| 20260505211933 | 12 | 270 | 3.2 | 11.3 | 0.00 | 0.05 | 0.05 | 82 | 1008.1 |
| 20260505211418 | 12 | 292 | 3.2 | 11.3 | 0.00 | 0.05 | 0.05 | 82 | 1008.1 |
| 20260505210913 | 12 | 248 | 3.2 | 6.4 | 0.00 | 0.05 | 0.05 | 81 | 1008.0 |
| 20260505210406 | 12 | 270 | 3.2 | 11.3 | 0.00 | 0.05 | 0.05 | 81 | 1008.1 |
| 20260505205854 | 12 | 248 | 3.2 | 11.3 | 0.00 | 0.05 | 0.05 | 81 | 1008.2 |
| 20260505205342 | 12 | 225 | 4.8 | 11.3 | 0.00 | 0.05 | 0.05 | 80 | 1008.0 |
| 20260505204830 | 12 | 248 | 3.2 | 14.5 | 0.00 | 0.08 | 0.05 | 80 | 1007.9 |
| 20260505204317 | 12 | 248 | 3.2 | 6.4 | 0.00 | 0.08 | 0.05 | 81 | 1008.1 |
| 20260505203806 | 12 | 270 | 3.2 | 6.4 | 0.00 | 0.08 | 0.05 | 81 | 1008.1 |
| 20260505203253 | 12 | 270 | 3.2 | 14.5 | 0.00 | 0.08 | 0.05 | 81 | 1008.2 |
| 20260505202744 | 12 | 225 | 3.2 | 11.3 | 0.00 | 0.08 | 0.05 | 81 | 1008.1 |
| 20260505202228 | 13 | 202 | 3.2 | 6.4 | 0.00 | 0.08 | 0.05 | 80 | 1008.0 |
| 20260505201717 | 13 | 225 | 3.2 | 6.4 | 0.00 | 0.08 | 0.05 | 80 | 1008.0 |
| 20260505201206 | 13 | 225 | 3.2 | 11.3 | 0.00 | 0.13 | 0.05 | 80 | 1008.0 |
| 20260505200653 | 13 | 225 | 3.2 | 14.5 | 0.00 | 0.20 | 0.05 | 80 | 1008.0 |
| 20260505200145 | 13 | 225 | 3.2 | 11.3 | 0.00 | 0.23 | 0.05 | 80 | 1008.0 |
| 20260505195629 | 13 | 202 | 1.6 | 11.3 | 0.00 | 0.23 | 0.05 | 80 | 1008.0 |
| 20260505195117 | 13 | 225 | 1.6 | 6.4 | 0.00 | 0.23 | 0.05 | 81 | 1008.0 |
| 20260505194605 | 13 | 225 | 0.0 | 3.2 | 0.00 | 0.23 | 0.05 | 81 | 1008.0 |
| 20260505194055 | 13 | 225 | 0.0 | 3.2 | 0.00 | 0.23 | 0.05 | 80 | 1007.8 |
| 20260505193547 | 13 | 225 | 0.0 | 0.0 | 0.00 | 0.23 | 0.05 | 78 | 1007.8 |
| 20260505193030 | 13 | 225 | 0.0 | 3.2 | 0.00 | 0.23 | 0.05 | 77 | 1007.6 |
| 20260505192517 | 14 | 225 | 0.0 | 3.2 | 0.00 | 0.23 | 0.05 | 74 | 1007.4 |
| 20260505192007 | 14 | 225 | 1.6 | 3.2 | 0.00 | 0.23 | 0.05 | 73 | 1007.3 |
| 20260505191453 | 14 | 225 | 0.0 | 3.2 | 0.00 | 0.23 | 0.05 | 73 | 1007.2 |
| 20260505190940 | 14 | 225 | 0.0 | 3.2 | 0.00 | 0.23 | 0.05 | 73 | 1007.0 |
| 20260505190430 | 14 | 225 | 1.6 | 3.2 | 0.00 | 0.23 | 0.05 | 73 | 1007.1 |
| 20260505185920 | 15 | 225 | 1.6 | 3.2 | 0.00 | 0.23 | 0.05 | 72 | 1007.1 |
| 20260505185406 | 15 | 225 | 1.6 | 3.2 | 0.00 | 0.23 | 0.05 | 71 | 1007.1 |
| 20260505184901 | 15 | 225 | 1.6 | 3.2 | 0.00 | 0.23 | 0.05 | 69 | 1007.0 |
| 20260505184342 | 15 | 225 | 1.6 | 6.4 | 0.00 | 0.23 | 0.05 | 69 | 1007.0 |
| 20260505183830 | 15 | 225 | 1.6 | 3.2 | 0.00 | 0.23 | 0.05 | 69 | 1007.0 |
| 20260505183317 | 15 | 0 | 0.0 | 0.0 | 0.00 | 0.23 | 0.05 | 74 | 1006.8 |
| 20260505182806 | 15 | 0 | 0.0 | 0.0 | 0.00 | 0.23 | 0.05 | 73 | 1006.8 |
| 20260505182253 | 15 | 0 | 0.0 | 0.0 | 0.00 | 0.23 | 0.05 | 69 | 1006.7 |
| 20260505181744 | 15 | 0 | 0.0 | 0.0 | 0.00 | 0.23 | 0.05 | 68 | 1006.6 |
| 20260505181229 | 15 | 0 | 0.0 | 0.0 | 0.00 | 0.23 | 0.05 | 71 | 1006.6 |
| 20260505180719 | 15 | 112 | 0.0 | 3.2 | 0.00 | 0.23 | 0.05 | 70 | 1006.5 |
| 20260505180206 | 15 | 112 | 1.6 | 3.2 | 0.00 | 0.23 | 0.05 | 69 | 1006.4 |
| 20260505175654 | 15 | 112 | 1.6 | 3.2 | 0.00 | 0.23 | 0.05 | 67 | 1006.5 |
| 20260505175140 | 16 | 0 | 0.0 | 0.0 | 0.00 | 0.23 | 0.05 | 68 | 1006.5 |
| 20260505174631 | 16 | 0 | 0.0 | 0.0 | 0.00 | 0.23 | 0.05 | 70 | 1006.4 |
| 20260505174117 | 16 | 112 | 0.0 | 3.2 | 0.00 | 0.23 | 0.05 | 69 | 1006.4 |
| 20260505173607 | 16 | 112 | 1.6 | 3.2 | 0.00 | 0.23 | 0.05 | 69 | 1006.3 |
| 20260505173053 | 16 | 112 | 1.6 | 6.4 | 0.00 | 0.23 | 0.05 | 68 | 1006.4 |
| 20260505172542 | 16 | 248 | 1.6 | 3.2 | 0.00 | 0.23 | 0.05 | 66 | 1006.4 |
| 20260505172029 | 17 | 248 | 1.6 | 3.2 | 0.00 | 0.23 | 0.05 | 65 | 1006.4 |
| 20260505171519 | 17 | 248 | 1.6 | 6.4 | 0.00 | 0.23 | 0.05 | 62 | 1006.3 |
| 20260505171006 | 18 | 225 | 1.6 | 3.2 | 0.00 | 0.23 | 0.05 | 60 | 1006.2 |
| 20260505170458 | 19 | 225 | 0.0 | 3.2 | 0.00 | 0.23 | 0.05 | 55 | 1006.0 |
| 20260505165941 | 19 | 225 | 0.0 | 3.2 | 0.00 | 0.23 | 0.05 | 57 | 1006.1 |
| 20260505165430 | 20 | 0 | 0.0 | 0.0 | 0.00 | 0.23 | 0.05 | 57 | 1006.1 |
| 20260505164918 | 20 | 0 | 0.0 | 0.0 | 0.00 | 0.23 | 0.05 | 55 | 1006.1 |
| 20260505164405 | 18 | 0 | 0.0 | 0.0 | 0.00 | 0.23 | 0.05 | 58 | 1006.2 |
| 20260505163854 | 19 | 0 | 0.0 | 0.0 | 0.00 | 0.23 | 0.05 | 59 | 1006.2 |
| 20260505163343 | 18 | 0 | 0.0 | 0.0 | 0.00 | 0.23 | 0.05 | 63 | 1006.3 |
| 20260505162829 | 18 | 0 | 0.0 | 0.0 | 0.00 | 0.23 | 0.05 | 64 | 1006.4 |
| 20260505162317 | 17 | 0 | 0.0 | 0.0 | 0.00 | 0.23 | 0.05 | 63 | 1006.4 |
| 20260505161806 | 18 | 0 | 0.0 | 0.0 | 0.00 | 0.23 | 0.05 | 64 | 1006.3 |
| 20260505161253 | 17 | 0 | 0.0 | 0.0 | 0.00 | 0.23 | 0.05 | 66 | 1006.4 |
| 20260505160743 | 17 | 0 | 0.0 | 0.0 | 0.00 | 0.23 | 0.05 | 65 | 1006.4 |
| 20260505160229 | 17 | 0 | 0.0 | 0.0 | 0.00 | 0.23 | 0.05 | 64 | 1006.4 |
| 20260505153117 | 16 | 225 | 1.6 | 3.2 | 0.00 | 0.23 | 0.05 | 67 | 1006.3 |
| 20260505152606 | 16 | 225 | 1.6 | 3.2 | 0.00 | 0.23 | 0.05 | 68 | 1006.5 |
| 20260505152054 | 16 | 225 | 0.0 | 3.2 | 0.00 | 0.23 | 0.05 | 70 | 1006.6 |
| 20260505151542 | 16 | 225 | 1.6 | 3.2 | 0.00 | 0.23 | 0.05 | 68 | 1006.5 |
| 20260505151028 | 16 | 225 | 1.6 | 3.2 | 0.00 | 0.23 | 0.05 | 71 | 1006.6 |
| 20260505150530 | 16 | 225 | 1.6 | 6.4 | 0.00 | 0.23 | 0.05 | 71 | 1006.5 |
| 20260505140254 | 16 | 225 | 3.2 | 6.4 | 0.00 | 0.23 | 0.05 | 71 | 1006.5 |
| 20260505125008 | 15 | 225 | 3.2 | 6.4 | 0.05 | 0.23 | 0.05 | 82 | 1007.5 |
| 20260505124454 | 16 | 225 | 3.2 | 6.4 | 0.05 | 0.23 | 0.05 | 81 | 1007.5 |
| 20260505123943 | 16 | 225 | 3.2 | 6.4 | 0.00 | 0.20 | 0.00 | 77 | 1007.4 |
| 20260505123429 | 16 | 225 | 3.2 | 11.3 | 0.00 | 0.20 | 0.00 | 73 | 1007.5 |
| 20260505122919 | 17 | 225 | 3.2 | 6.4 | 0.00 | 0.20 | 0.00 | 71 | 1007.5 |
| 20260505122407 | 17 | 225 | 3.2 | 6.4 | 0.00 | 0.20 | 0.00 | 64 | 1007.3 |
| 20260505121854 | 17 | 248 | 3.2 | 6.4 | 0.00 | 0.20 | 0.00 | 63 | 1007.4 |
| 20260505121341 | 17 | 248 | 3.2 | 6.4 | 0.00 | 0.20 | 0.00 | 64 | 1007.3 |
| 20260505120832 | 18 | 248 | 3.2 | 11.3 | 0.00 | 0.20 | 0.00 | 62 | 1007.2 |
| 20260505120315 | 18 | 112 | 3.2 | 6.4 | 0.00 | 0.20 | 0.00 | 61 | 1007.1 |
| 20260505115806 | 18 | 225 | 3.2 | 11.3 | 0.00 | 0.20 | 0.00 | 63 | 1007.1 |
| 20260505115254 | 18 | 225 | 3.2 | 14.5 | 0.00 | 0.20 | 0.00 | 63 | 1007.0 |
| 20260505114743 | 18 | 225 | 3.2 | 6.4 | 0.00 | 0.20 | 0.00 | 64 | 1007.0 |
| 20260505114229 | 18 | 225 | 1.6 | 6.4 | 0.00 | 0.20 | 0.00 | 64 | 1006.9 |
| 20260505113719 | 18 | 202 | 1.6 | 3.2 | 0.00 | 0.20 | 0.00 | 61 | 1006.9 |
| 20260505113205 | 18 | 202 | 3.2 | 11.3 | 0.00 | 0.20 | 0.00 | 61 | 1006.9 |
| 20260505112656 | 18 | 202 | 3.2 | 3.2 | 0.00 | 0.20 | 0.00 | 63 | 1006.9 |
| 20260505112142 | 18 | 202 | 3.2 | 6.4 | 0.00 | 0.20 | 0.00 | 61 | 1006.8 |
| 20260505111630 | 19 | 202 | 1.6 | 3.2 | 0.00 | 0.20 | 0.00 | 59 | 1006.7 |
| 20260505111117 | 19 | 202 | 1.6 | 3.2 | 0.00 | 0.20 | 0.00 | 59 | 1006.9 |
| 20260505110609 | 19 | 202 | 1.6 | 3.2 | 0.00 | 0.20 | 0.00 | 61 | 1006.8 |